createdAt,value
2022-11-24T00:00:07.438Z,8.40
2022-11-24T00:05:11.592Z,8.44
2022-11-24T00:10:15.724Z,8.43
2022-11-24T00:15:19.939Z,8.41
2022-11-24T00:20:22.186Z,8.36
2022-11-24T00:25:26.342Z,8.31
2022-11-24T00:30:30.540Z,8.28
2022-11-24T00:35:34.676Z,8.35
2022-11-24T00:40:38.844Z,8.28
2022-11-24T00:45:43.077Z,8.18
2022-11-24T00:50:45.252Z,8.12
2022-11-24T00:55:49.396Z,8.19
2022-11-24T01:00:53.557Z,8.05
2022-11-24T01:05:57.769Z,7.98
2022-11-24T01:11:01.943Z,8.00
2022-11-24T01:16:06.149Z,7.92
2022-11-24T01:21:10.579Z,7.82
2022-11-24T01:26:14.406Z,7.80
2022-11-24T01:31:18.596Z,7.88
2022-11-24T01:36:22.734Z,7.90
2022-11-24T01:41:26.885Z,7.88
2022-11-24T01:46:31.121Z,7.76
2022-11-24T01:51:35.214Z,7.68
2022-11-24T01:56:39.380Z,7.61
2022-11-24T02:01:43.693Z,7.61
2022-11-24T02:06:47.717Z,7.66
2022-11-24T02:11:51.890Z,7.73
2022-11-24T02:16:56.015Z,7.93
2022-11-24T02:22:00.209Z,8.08
2022-11-24T02:27:04.326Z,8.16
2022-11-24T02:32:08.512Z,8.20
2022-11-24T02:37:12.697Z,8.22
2022-11-24T02:42:16.834Z,8.20
2022-11-24T02:47:21.000Z,8.18
2022-11-24T02:52:25.164Z,8.23
2022-11-24T02:57:29.306Z,8.26
2022-11-24T03:02:33.632Z,8.28
2022-11-24T03:07:37.685Z,8.29
2022-11-24T03:12:41.820Z,8.24
2022-11-24T03:17:45.935Z,8.29
2022-11-24T03:22:50.148Z,8.26
2022-11-24T03:27:54.269Z,8.23
2022-11-24T03:32:58.458Z,8.23
2022-11-24T03:38:02.604Z,8.18
2022-11-24T03:43:06.782Z,8.11
2022-11-24T03:48:10.951Z,8.13
2022-11-24T03:53:15.127Z,8.07
2022-11-24T03:58:19.272Z,8.02
2022-11-24T04:03:23.447Z,8.03
2022-11-24T04:08:27.587Z,8.01
2022-11-24T04:13:31.772Z,8.08
2022-11-24T04:18:35.900Z,8.06
2022-11-24T04:23:40.098Z,8.06
2022-11-24T04:28:44.219Z,8.03
2022-11-24T04:33:48.402Z,8.04
2022-11-24T04:39:25.983Z,8.09
2022-11-24T04:43:56.735Z,8.16
2022-11-24T04:54:05.050Z,8.28
2022-11-24T04:59:09.211Z,8.33
2022-11-24T05:04:13.434Z,8.36
2022-11-24T05:09:17.559Z,8.37
2022-11-24T05:14:21.946Z,8.38
2022-11-24T05:24:30.022Z,8.38
2022-11-24T05:29:34.197Z,8.45
2022-11-24T05:34:38.365Z,8.45
2022-11-24T05:39:42.507Z,8.47
2022-11-24T05:44:46.645Z,8.49
2022-11-24T05:49:50.818Z,8.51
2022-11-24T05:54:54.962Z,8.51
2022-11-24T05:59:59.134Z,8.50
2022-11-24T06:05:03.327Z,8.51
2022-11-24T06:10:07.455Z,8.50
2022-11-24T06:15:11.651Z,8.55
2022-11-24T06:20:13.901Z,8.55
2022-11-24T06:25:18.054Z,8.62
2022-11-24T06:30:22.224Z,8.67
2022-11-24T06:35:26.618Z,8.62
2022-11-24T06:40:30.526Z,8.58
2022-11-24T06:45:34.859Z,8.57
2022-11-24T06:50:38.897Z,8.52
2022-11-24T06:55:43.143Z,8.49
2022-11-24T07:00:47.240Z,8.49
2022-11-24T07:05:51.330Z,8.47
2022-11-24T07:10:55.534Z,8.49
2022-11-24T07:15:59.791Z,8.49
2022-11-24T07:21:03.878Z,8.44
2022-11-24T07:26:08.018Z,8.44
2022-11-24T07:31:12.400Z,8.36
2022-11-24T07:36:16.328Z,8.33
2022-11-24T07:41:20.529Z,8.38
2022-11-24T07:46:24.721Z,8.46
2022-11-24T07:51:28.929Z,8.52
2022-11-24T07:56:32.960Z,8.58
2022-11-24T08:01:37.171Z,8.62
2022-11-24T08:06:46.053Z,8.64
2022-11-24T08:11:45.475Z,8.59
2022-11-24T08:16:49.843Z,8.57
2022-11-24T08:21:53.814Z,8.55
2022-11-24T08:26:57.963Z,8.57
2022-11-24T08:32:02.190Z,8.53
2022-11-24T08:37:06.268Z,8.46
2022-11-24T08:42:10.459Z,8.52
2022-11-24T08:47:14.586Z,8.51
2022-11-24T08:52:18.779Z,8.55
2022-11-24T08:57:22.933Z,8.56
2022-11-24T09:02:27.092Z,8.56
2022-11-24T09:07:31.345Z,8.51
2022-11-24T09:12:35.392Z,8.36
2022-11-24T09:17:39.551Z,8.26
2022-11-24T09:22:43.734Z,8.20
2022-11-24T09:27:47.891Z,8.23
2022-11-24T09:32:52.057Z,8.25
2022-11-24T09:37:56.188Z,8.33
2022-11-24T09:43:00.402Z,8.40
2022-11-24T09:48:04.570Z,8.56
2022-11-24T09:53:08.685Z,8.76
2022-11-24T09:58:12.903Z,8.88
2022-11-24T10:03:17.077Z,8.87
2022-11-24T10:08:21.173Z,8.88
2022-11-24T10:13:25.359Z,8.90
2022-11-24T10:18:29.517Z,8.96
2022-11-24T10:23:39.443Z,8.98
2022-11-24T10:28:37.853Z,9.02
2022-11-24T10:33:42.015Z,8.97
2022-11-24T10:38:46.145Z,8.91
2022-11-24T10:43:50.324Z,8.91
2022-11-24T10:48:54.505Z,8.98
2022-11-24T10:53:59.812Z,9.15
2022-11-24T10:59:02.781Z,9.29
2022-11-24T11:04:06.982Z,9.42
2022-11-24T11:09:11.138Z,9.54
2022-11-24T11:14:15.305Z,9.69
2022-11-24T11:19:47.485Z,9.90
2022-11-24T11:24:23.633Z,9.99
2022-11-24T11:34:31.975Z,10.21
2022-11-24T11:39:36.141Z,10.10
2022-11-24T11:44:40.264Z,10.13
2022-11-24T11:49:43.299Z,9.86
2022-11-24T11:54:46.696Z,9.99
2022-11-24T11:59:50.872Z,10.06
2022-11-24T12:04:55.038Z,9.97
2022-11-24T12:09:59.227Z,10.08
2022-11-24T12:15:09.010Z,9.90
2022-11-24T12:20:07.500Z,9.79
2022-11-24T12:25:11.663Z,9.74
2022-11-24T12:30:15.787Z,9.82
2022-11-24T12:35:19.984Z,9.90
2022-11-24T12:40:24.132Z,10.19
2022-11-24T12:45:28.279Z,10.33
2022-11-24T12:50:32.652Z,10.43
2022-11-24T12:55:36.611Z,10.49
2022-11-24T13:00:40.800Z,10.53
2022-11-24T13:05:44.943Z,10.66
2022-11-24T13:10:56.544Z,10.75
2022-11-24T13:16:01.846Z,10.84
2022-11-24T13:20:57.415Z,10.75
2022-11-24T13:26:01.570Z,10.80
2022-11-24T13:31:05.791Z,10.82
2022-11-24T13:36:09.896Z,10.84
2022-11-24T13:41:28.262Z,10.92
2022-11-24T13:46:18.222Z,10.91
2022-11-24T13:51:22.394Z,10.94
2022-11-24T13:56:26.540Z,10.92
2022-11-24T14:01:31.045Z,10.88
2022-11-24T14:06:34.870Z,10.80
2022-11-24T14:11:39.028Z,10.82
2022-11-24T14:16:43.206Z,10.86
2022-11-24T14:21:47.344Z,10.91
2022-11-24T14:26:51.519Z,10.95
2022-11-24T14:31:55.763Z,10.81
2022-11-24T14:36:59.891Z,10.70
2022-11-24T14:42:04.008Z,10.55
2022-11-24T14:47:08.270Z,10.47
2022-11-24T14:52:12.316Z,10.27
2022-11-24T14:57:16.502Z,10.14
2022-11-24T15:02:20.737Z,9.97
2022-11-24T15:07:24.926Z,9.78
2022-11-24T15:12:29.209Z,9.56
2022-11-24T15:17:33.107Z,9.35
2022-11-24T15:22:37.302Z,9.00
2022-11-24T15:27:41.459Z,8.64
2022-11-24T15:32:45.644Z,8.52
2022-11-24T15:37:49.755Z,8.33
2022-11-24T15:42:53.953Z,8.21
2022-11-24T15:47:58.117Z,8.09
2022-11-24T15:53:02.253Z,8.03
2022-11-24T15:58:06.410Z,7.92
2022-11-24T16:03:44.497Z,7.84
2022-11-24T16:08:14.779Z,7.60
2022-11-24T16:13:18.925Z,7.52
2022-11-24T16:18:23.058Z,7.41
2022-11-24T16:23:27.249Z,7.28
2022-11-24T16:28:31.427Z,7.35
2022-11-24T16:38:39.733Z,7.18
2022-11-24T16:43:43.868Z,7.15
2022-11-24T16:48:48.052Z,7.28
2022-11-24T16:53:52.188Z,7.33
2022-11-24T16:58:56.385Z,7.48
2022-11-24T17:04:00.544Z,7.60
2022-11-24T17:09:04.701Z,7.65
2022-11-24T17:14:08.834Z,7.72
2022-11-24T17:19:11.121Z,7.88
2022-11-24T17:24:15.266Z,7.88
2022-11-24T17:29:19.434Z,8.00
2022-11-24T17:34:23.622Z,8.13
2022-11-24T17:39:27.803Z,8.19
2022-11-24T17:44:32.055Z,8.16
2022-11-24T17:49:34.199Z,8.11
2022-11-24T17:54:46.291Z,8.15
2022-11-24T17:59:42.540Z,8.13
2022-11-24T18:04:46.675Z,8.21
2022-11-24T18:09:50.875Z,8.22
2022-11-24T18:14:55.049Z,8.22
2022-11-24T18:19:59.161Z,8.14
2022-11-24T18:25:03.358Z,8.10
2022-11-24T18:30:07.496Z,8.09
2022-11-24T18:35:11.631Z,8.14
2022-11-24T18:40:15.839Z,8.10
2022-11-24T18:45:19.974Z,8.12
2022-11-24T18:50:24.174Z,8.08
2022-11-24T18:55:28.320Z,8.04
2022-11-24T19:00:32.490Z,7.95
2022-11-24T19:05:36.620Z,7.86
2022-11-24T19:10:40.801Z,7.78
2022-11-24T19:15:44.936Z,7.67
2022-11-24T19:20:49.097Z,7.58
2022-11-24T19:25:53.247Z,7.49
2022-11-24T19:30:57.472Z,7.38
2022-11-24T19:36:01.605Z,7.25
2022-11-24T19:41:05.756Z,7.19
2022-11-24T19:46:10.006Z,7.22
2022-11-24T19:51:14.077Z,7.23
2022-11-24T19:56:18.290Z,7.21
2022-11-24T20:01:22.510Z,7.14
2022-11-24T20:06:26.605Z,7.13
2022-11-24T20:11:30.740Z,7.06
2022-11-24T20:16:35.023Z,7.06
2022-11-24T20:21:39.059Z,7.09
2022-11-24T20:26:43.248Z,7.08
2022-11-24T20:31:47.454Z,7.07
2022-11-24T20:36:51.515Z,7.01
2022-11-24T20:41:55.701Z,6.91
2022-11-24T20:46:59.874Z,6.73
2022-11-24T20:52:04.019Z,6.69
2022-11-24T20:57:08.185Z,6.65
2022-11-24T21:02:12.472Z,6.66
2022-11-24T21:07:16.609Z,6.73
2022-11-24T21:12:20.706Z,6.83
2022-11-24T21:17:24.855Z,6.83
2022-11-24T21:22:29.040Z,6.91
2022-11-24T21:27:33.207Z,6.90
2022-11-24T21:32:37.350Z,6.90
2022-11-24T21:37:41.517Z,6.94
2022-11-24T21:42:45.642Z,6.97
2022-11-24T21:47:49.803Z,6.88
2022-11-24T21:52:53.991Z,6.81
2022-11-24T21:57:58.142Z,6.82
2022-11-24T22:03:02.322Z,6.80
2022-11-24T22:08:06.486Z,6.80
2022-11-24T22:13:10.667Z,6.84
2022-11-24T22:18:14.788Z,6.77
2022-11-24T22:23:18.964Z,6.77
2022-11-24T22:28:23.160Z,6.70
2022-11-24T22:33:27.310Z,6.79
2022-11-24T22:38:31.443Z,6.82
2022-11-24T22:43:35.621Z,6.84
2022-11-24T22:48:39.785Z,6.83
2022-11-24T22:53:43.962Z,6.97
2022-11-24T22:58:48.094Z,7.06
2022-11-24T23:03:52.325Z,7.20
2022-11-24T23:08:56.445Z,7.22
2022-11-24T23:14:00.600Z,7.38
2022-11-24T23:19:02.846Z,7.51
2022-11-24T23:24:07.031Z,7.48
2022-11-24T23:29:11.167Z,7.51
2022-11-24T23:34:15.362Z,7.48
2022-11-24T23:39:19.525Z,7.47
2022-11-24T23:44:23.675Z,7.51
2022-11-24T23:49:27.852Z,7.56
2022-11-24T23:54:31.987Z,7.57
2022-11-24T23:59:36.149Z,7.64
